Anna Noli — IZEL — position and weather

sailwx.info

Track history (hours):
 
Tides and Currents Weather Stations Pressure Air Temp Water Temp Dewpoint Dewpoint Depression Visibility Wind Speed Wind Dir Waves Ship Positions

Anna Noli

Last reported at 2015-Aug-03 10:31 UTC. Time now 2015-Aug-03 10:39 UTC.
Position N 44°18' E 008°29'.

Length 32 m.

Type: Tug. MMSI: 247046500.

Date/timePositionNaut miles runAvg speedWind from/ knotsBaromVisibWave heightAir tempDewpointWater temp
2015-Aug-03 10:31N 44°18' E 008°29'0 0.0
2015-Aug-03 09:33N 44°18' E 008°29'0 0.0
2015-Aug-03 08:31N 44°18' E 008°29'0 0.0
2015-Aug-03 07:33N 44°18' E 008°29'0 0.0
2015-Aug-03 06:33N 44°18' E 008°29'0 0.0
2015-Aug-03 05:33N 44°18' E 008°29'0 0.0
2015-Aug-03 04:33N 44°18' E 008°29'0 0.0
2015-Aug-03 03:33N 44°18' E 008°29'0 0.0
2015-Aug-03 02:33N 44°18' E 008°29'0 0.0
2015-Aug-03 01:33N 44°18' E 008°29'0 0.0
2015-Aug-03 00:33N 44°18' E 008°29'0 0.0
2015-Aug-02 23:33N 44°18' E 008°29'0 0.0
2015-Aug-02 22:33N 44°18' E 008°29'0 0.0
2015-Aug-02 21:33N 44°18' E 008°29'0 0.0
2015-Aug-02 20:33N 44°18' E 008°29'0 0.0
2015-Aug-02 19:33N 44°18' E 008°29'0 0.0
2015-Aug-02 18:33N 44°18' E 008°29'0 0.0
2015-Aug-02 17:28N 44°18' E 008°29'0 0.0
2015-Aug-02 14:33N 44°18' E 008°29'0 0.0
2015-Aug-02 13:13N 44°18' E 008°29'0 0.0
2015-Aug-02 12:04N 44°18' E 008°29'0 0.0
2015-Aug-02 11:18N 44°18' E 008°29'0 0.0
2015-Aug-02 07:32N 44°18' E 008°29'0 0.0
2015-Aug-02 06:33N 44°18' E 008°29'0 0.0
2015-Aug-02 05:33N 44°18' E 008°29'0 0.0
2015-Aug-02 04:33N 44°18' E 008°29'0 0.0
2015-Aug-02 03:32N 44°18' E 008°29'0 0.0
2015-Aug-02 02:31N 44°18' E 008°29'0 0.0
2015-Aug-02 01:33N 44°18' E 008°29'0 0.0
2015-Aug-02 00:33N 44°18' E 008°29'0 0.0
2015-Aug-01 23:33N 44°18' E 008°29'0 0.0
2015-Aug-01 22:31N 44°18' E 008°29'0 0.0
2015-Aug-01 21:33N 44°18' E 008°29'0 0.0
2015-Aug-01 20:32N 44°18' E 008°29'0 0.0
2015-Aug-01 19:33N 44°18' E 008°29'0 0.0
2015-Aug-01 18:31N 44°18' E 008°29'0 0.0
2015-Aug-01 17:20N 44°18' E 008°29'0 0.0
2015-Aug-01 16:23N 44°18' E 008°29'0 0.0
2015-Aug-01 09:19N 44°18' E 008°29'0 0.1
2015-Aug-01 08:24N 44°19' E 008°29'2 2.5
2015-Aug-01 07:30N 44°17' E 008°28'1 0.8
2015-Aug-01 06:29N 44°16' E 008°28'3 3.4
2015-Aug-01 05:30N 44°19' E 008°30'1 0.7
2015-Aug-01 04:29N 44°18' E 008°29'0 0.0
2015-Aug-01 03:23N 44°18' E 008°29'0 0.0
2015-Aug-01 02:29N 44°18' E 008°29'0 0.0
2015-Aug-01 01:29N 44°18' E 008°29'0 0.0
2015-Jul-31 23:29N 44°18' E 008°29'0 0.0
2015-Jul-31 22:29N 44°18' E 008°29'0 0.0
2015-Jul-31 21:05N 44°18' E 008°29'0 0.0
2015-Jul-31 20:17N 44°18' E 008°29'0 0.0
2015-Jul-31 19:17N 44°18' E 008°29'0 0.0
2015-Jul-31 18:23N 44°18' E 008°29'1 0.7
2015-Jul-31 17:33N 44°19' E 008°30'1 0.5
2015-Jul-31 16:23N 44°18' E 008°29'0 0.0
2015-Jul-31 15:23N 44°18' E 008°29'0 0.0
2015-Jul-31 14:23N 44°18' E 008°29'0 0.0
2015-Jul-31 13:11N 44°18' E 008°29'0 0.0
2015-Jul-31 12:23N 44°18' E 008°29'0 0.0
2015-Jul-31 11:29N 44°18' E 008°29'0 0.0
2015-Jul-31 09:29N 44°18' E 008°29'0 0.0
2015-Jul-31 06:30N 44°18' E 008°29'0 0.0
2015-Jul-31 05:30N 44°18' E 008°29'0 0.0
2015-Jul-31 04:12N 44°18' E 008°29'0 0.0
2015-Jul-30 23:30N 44°18' E 008°29'0 0.0
2015-Jul-30 22:24N 44°18' E 008°29'0 0.0
2015-Jul-30 21:30N 44°18' E 008°29'0 0.0
2015-Jul-30 20:30N 44°18' E 008°29'0 0.0
2015-Jul-30 19:30N 44°18' E 008°29'0 0.0
2015-Jul-30 18:30N 44°18' E 008°29'0 0.0
2015-Jul-30 17:30N 44°18' E 008°29'0 0.0
2015-Jul-30 16:30N 44°18' E 008°29'0 0.0
2015-Jul-30 15:30N 44°18' E 008°29'2 2.2
2015-Jul-30 14:33N 44°17' E 008°28'0 0.1
2015-Jul-30 13:32N 44°17' E 008°28'1 1.2
2015-Jul-30 12:33N 44°16' E 008°28'3 0.9
2015-Jul-30 09:25N 44°18' E 008°29'0 0.0
2015-Jul-30 08:28N 44°18' E 008°29'0 0.0
2015-Jul-30 07:28N 44°18' E 008°29'0 0.0
2015-Jul-30 06:16N 44°18' E 008°29'0 0.0
2015-Jul-30 04:28N 44°18' E 008°29'0 0.0
2015-Jul-30 03:31N 44°18' E 008°29'0 0.0
2015-Jul-30 02:31N 44°18' E 008°29'0 0.0
2015-Jul-30 01:28N 44°18' E 008°29'0 0.0
2015-Jul-30 00:28N 44°18' E 008°29'0 0.0
2015-Jul-29 23:28N 44°18' E 008°29'0 0.0
2015-Jul-29 22:25N 44°18' E 008°29'0 0.0
2015-Jul-29 21:28N 44°18' E 008°29'0 0.0
2015-Jul-29 20:22N 44°18' E 008°29'0 0.0
2015-Jul-29 19:28N 44°18' E 008°29'0 0.0
2015-Jul-29 18:16N 44°18' E 008°29'0 0.0
2015-Jul-29 17:28N 44°18' E 008°29'0 0.0
2015-Jul-29 16:28N 44°18' E 008°29'0 0.0
2015-Jul-29 15:31N 44°18' E 008°29'0 0.0
2015-Jul-29 14:19N 44°18' E 008°29'0 0.0
2015-Jul-29 13:10N 44°18' E 008°29'0 0.0
2015-Jul-29 11:10N 44°18' E 008°29'0 0.0
2015-Jul-29 10:22N 44°18' E 008°29'0 0.0
2015-Jul-29 09:25N 44°18' E 008°29'0 0.0
2015-Jul-29 08:25N 44°18' E 008°29'0 0.0
2015-Jul-29 07:28N 44°18' E 008°29'0 0.0
2015-Jul-29 06:28N 44°18' E 008°29'0 0.0
2015-Jul-29 05:28N 44°18' E 008°29'0 0.0
2015-Jul-29 04:28N 44°18' E 008°29'0 0.0
2015-Jul-29 03:31N 44°18' E 008°29'0 0.0
2015-Jul-29 02:28N 44°18' E 008°29'0 0.0
2015-Jul-29 01:31N 44°18' E 008°29'0 0.0
2015-Jul-29 00:31N 44°18' E 008°29'0 0.0
2015-Jul-28 23:31N 44°18' E 008°29'0 0.0
2015-Jul-28 22:28N 44°18' E 008°29'0 0.0
2015-Jul-28 21:04N 44°18' E 008°29'0 0.0
2015-Jul-28 20:16N 44°18' E 008°29'0 0.0
2015-Jul-28 19:28N 44°18' E 008°29'0 0.0
2015-Jul-28 18:28N 44°18' E 008°29'0 0.0
2015-Jul-28 17:28N 44°18' E 008°29'0 0.0
2015-Jul-28 16:28N 44°18' E 008°29'0 0.0
2015-Jul-28 15:22N 44°18' E 008°29'0 0.0
2015-Jul-28 14:28N 44°18' E 008°29'0 0.0
2015-Jul-28 13:31N 44°18' E 008°29'0 0.0
2015-Jul-28 12:28N 44°18' E 008°29'0 0.0
2015-Jul-28 11:28N 44°18' E 008°29'0 0.0
2015-Jul-28 10:28N 44°18' E 008°29'0 0.0
2015-Jul-28 09:28N 44°18' E 008°29'0 0.0
2015-Jul-28 08:28N 44°18' E 008°29'0 0.0
2015-Jul-28 07:22N 44°18' E 008°29'1 0.9
2015-Jul-28 06:33N 44°19' E 008°30'0 0.0
2015-Jul-28 05:33N 44°19' E 008°30'1 0.6
2015-Jul-28 04:28N 44°18' E 008°29'0 0.0
2015-Jul-28 03:28N 44°18' E 008°29'0 0.0
2015-Jul-28 02:32N 44°18' E 008°29'0 0.0
2015-Jul-28 01:32N 44°18' E 008°29'0 0.0
2015-Jul-28 00:32N 44°18' E 008°29'0 0.0
2015-Jul-27 23:32N 44°18' E 008°29'0 0.0
2015-Jul-27 22:30N 44°18' E 008°29'0 0.0
2015-Jul-27 21:24N 44°18' E 008°29'0 0.0
2015-Jul-27 20:25N 44°18' E 008°29'0 0.0
2015-Jul-27 19:31N 44°18' E 008°29'0 0.0
2015-Jul-27 18:31N 44°18' E 008°29'0 0.0
2015-Jul-27 17:31N 44°18' E 008°29'0 0.0
2015-Jul-27 16:31N 44°18' E 008°29'0 0.0
2015-Jul-27 15:31N 44°18' E 008°29'0 0.0
2015-Jul-27 14:31N 44°18' E 008°29'0 0.0
2015-Jul-27 13:25N 44°18' E 008°29'1 0.6
2015-Jul-27 12:31N 44°19' E 008°30'0 0.0
2015-Jul-27 11:29N 44°19' E 008°30'0 0.1
2015-Jul-27 10:33N 44°19' E 008°30'1 0.6
2015-Jul-27 09:30N 44°18' E 008°29'0 0.0
2015-Jul-27 08:30N 44°18' E 008°29'0 0.0
2015-Jul-27 02:24N 44°18' E 008°29'0 0.0
2015-Jul-27 01:30N 44°18' E 008°29'0 0.0
2015-Jul-26 21:18N 44°18' E 008°29'0 0.0
2015-Jul-26 19:30N 44°18' E 008°29'1 0.1
2015-Jul-26 14:33N 44°18' E 008°30'2 1.9
2015-Jul-26 13:30N 44°17' E 008°28'1 1.4
2015-Jul-26 12:31N 44°17' E 008°29'1 1.1
2015-Jul-26 11:32N 44°18' E 008°29'0 0.0
2015-Jul-26 10:08N 44°18' E 008°29'0 0.0
2015-Jul-26 09:32N 44°18' E 008°29'0 0.0
2015-Jul-26 08:08N 44°18' E 008°29'0 0.0
2015-Jul-26 07:26N 44°18' E 008°29'0 0.0
2015-Jul-26 06:26N 44°18' E 008°29'0 0.0
2015-Jul-26 05:26N 44°18' E 008°29'0 0.0
2015-Jul-26 04:26N 44°18' E 008°29'0 0.0
2015-Jul-26 03:26N 44°18' E 008°29'0 0.0
2015-Jul-26 02:26N 44°18' E 008°29'0 0.0
2015-Jul-26 01:32N 44°18' E 008°29'0 0.0
2015-Jul-26 00:32N 44°18' E 008°29'0 0.0
2015-Jul-25 23:32N 44°18' E 008°29'0 0.0
2015-Jul-25 22:20N 44°18' E 008°29'0 0.0
2015-Jul-25 21:32N 44°18' E 008°29'0 0.0
2015-Jul-25 20:30N 44°18' E 008°29'0 0.0
2015-Jul-25 19:27N 44°18' E 008°29'0 0.0
2015-Jul-25 18:30N 44°18' E 008°29'0 0.0
2015-Jul-25 17:25N 44°18' E 008°29'0 0.0
2015-Jul-25 14:21N 44°18' E 008°29'0 0.0
2015-Jul-25 12:31N 44°18' E 008°29'0 0.0
2015-Jul-25 10:31N 44°18' E 008°29'0 0.0
2015-Jul-25 09:19N 44°18' E 008°29'0 0.0
2015-Jul-25 06:25N 44°18' E 008°29'0 0.0
2015-Jul-25 05:25N 44°18' E 008°29'0 0.0
2015-Jul-24 20:19N 44°18' E 008°29'0 0.0
2015-Jul-24 19:31N 44°18' E 008°29'0 0.0
2015-Jul-24 17:07N 44°18' E 008°29'0 0.0
2015-Jul-24 16:25N 44°18' E 008°29'0 0.0
2015-Jul-24 15:25N 44°18' E 008°29'0 0.0
2015-Jul-24 14:07N 44°18' E 008°29'0 0.0
2015-Jul-24 12:31N 44°18' E 008°29'0 0.0
2015-Jul-24 11:31N 44°18' E 008°29'  
Track history (hours):
 
Tides and Currents Weather Stations Pressure Air Temp Water Temp Dewpoint Dewpoint Depression Visibility Wind Speed Wind Dir Waves Ship Positions

Anna Noli

Last reported at 2015-Aug-03 10:31 UTC. Time now 2015-Aug-03 10:39 UTC.
Position N 44°18' E 008°29'.

Length 32 m.

Type: Tug. MMSI: 247046500.

Date/timePositionNaut miles runAvg speedWind from/ knotsBaromVisibWave heightAir tempDewpointWater temp
2015-Aug-03 10:31N 44°18' E 008°29'0 0.0
2015-Aug-03 09:33N 44°18' E 008°29'0 0.0
2015-Aug-03 08:31N 44°18' E 008°29'0 0.0
2015-Aug-03 07:33N 44°18' E 008°29'0 0.0
2015-Aug-03 06:33N 44°18' E 008°29'0 0.0
2015-Aug-03 05:33N 44°18' E 008°29'0 0.0
2015-Aug-03 04:33N 44°18' E 008°29'0 0.0
2015-Aug-03 03:33N 44°18' E 008°29'0 0.0
2015-Aug-03 02:33N 44°18' E 008°29'0 0.0
2015-Aug-03 01:33N 44°18' E 008°29'0 0.0
2015-Aug-03 00:33N 44°18' E 008°29'0 0.0
2015-Aug-02 23:33N 44°18' E 008°29'0 0.0
2015-Aug-02 22:33N 44°18' E 008°29'0 0.0
2015-Aug-02 21:33N 44°18' E 008°29'0 0.0
2015-Aug-02 20:33N 44°18' E 008°29'0 0.0
2015-Aug-02 19:33N 44°18' E 008°29'0 0.0
2015-Aug-02 18:33N 44°18' E 008°29'0 0.0
2015-Aug-02 17:28N 44°18' E 008°29'0 0.0
2015-Aug-02 14:33N 44°18' E 008°29'0 0.0
2015-Aug-02 13:13N 44°18' E 008°29'0 0.0
2015-Aug-02 12:04N 44°18' E 008°29'0 0.0
2015-Aug-02 11:18N 44°18' E 008°29'0 0.0
2015-Aug-02 07:32N 44°18' E 008°29'0 0.0
2015-Aug-02 06:33N 44°18' E 008°29'0 0.0
2015-Aug-02 05:33N 44°18' E 008°29'0 0.0
2015-Aug-02 04:33N 44°18' E 008°29'0 0.0
2015-Aug-02 03:32N 44°18' E 008°29'0 0.0
2015-Aug-02 02:31N 44°18' E 008°29'0 0.0
2015-Aug-02 01:33N 44°18' E 008°29'0 0.0
2015-Aug-02 00:33N 44°18' E 008°29'0 0.0
2015-Aug-01 23:33N 44°18' E 008°29'0 0.0
2015-Aug-01 22:31N 44°18' E 008°29'0 0.0
2015-Aug-01 21:33N 44°18' E 008°29'0 0.0
2015-Aug-01 20:32N 44°18' E 008°29'0 0.0
2015-Aug-01 19:33N 44°18' E 008°29'0 0.0
2015-Aug-01 18:31N 44°18' E 008°29'0 0.0
2015-Aug-01 17:20N 44°18' E 008°29'0 0.0
2015-Aug-01 16:23N 44°18' E 008°29'0 0.0
2015-Aug-01 09:19N 44°18' E 008°29'0 0.1
2015-Aug-01 08:24N 44°19' E 008°29'2 2.5
2015-Aug-01 07:30N 44°17' E 008°28'1 0.8
2015-Aug-01 06:29N 44°16' E 008°28'3 3.4
2015-Aug-01 05:30N 44°19' E 008°30'1 0.7
2015-Aug-01 04:29N 44°18' E 008°29'0 0.0
2015-Aug-01 03:23N 44°18' E 008°29'0 0.0
2015-Aug-01 02:29N 44°18' E 008°29'0 0.0
2015-Aug-01 01:29N 44°18' E 008°29'0 0.0
2015-Jul-31 23:29N 44°18' E 008°29'0 0.0
2015-Jul-31 22:29N 44°18' E 008°29'0 0.0
2015-Jul-31 21:05N 44°18' E 008°29'0 0.0
2015-Jul-31 20:17N 44°18' E 008°29'0 0.0
2015-Jul-31 19:17N 44°18' E 008°29'0 0.0
2015-Jul-31 18:23N 44°18' E 008°29'1 0.7
2015-Jul-31 17:33N 44°19' E 008°30'1 0.5
2015-Jul-31 16:23N 44°18' E 008°29'0 0.0
2015-Jul-31 15:23N 44°18' E 008°29'0 0.0
2015-Jul-31 14:23N 44°18' E 008°29'0 0.0
2015-Jul-31 13:11N 44°18' E 008°29'0 0.0
2015-Jul-31 12:23N 44°18' E 008°29'0 0.0
2015-Jul-31 11:29N 44°18' E 008°29'0 0.0
2015-Jul-31 09:29N 44°18' E 008°29'0 0.0
2015-Jul-31 06:30N 44°18' E 008°29'0 0.0
2015-Jul-31 05:30N 44°18' E 008°29'0 0.0
2015-Jul-31 04:12N 44°18' E 008°29'0 0.0
2015-Jul-30 23:30N 44°18' E 008°29'0 0.0
2015-Jul-30 22:24N 44°18' E 008°29'0 0.0
2015-Jul-30 21:30N 44°18' E 008°29'0 0.0
2015-Jul-30 20:30N 44°18' E 008°29'0 0.0
2015-Jul-30 19:30N 44°18' E 008°29'0 0.0
2015-Jul-30 18:30N 44°18' E 008°29'0 0.0
2015-Jul-30 17:30N 44°18' E 008°29'0 0.0
2015-Jul-30 16:30N 44°18' E 008°29'0 0.0
2015-Jul-30 15:30N 44°18' E 008°29'2 2.2
2015-Jul-30 14:33N 44°17' E 008°28'0 0.1
2015-Jul-30 13:32N 44°17' E 008°28'1 1.2
2015-Jul-30 12:33N 44°16' E 008°28'3 0.9
2015-Jul-30 09:25N 44°18' E 008°29'0 0.0
2015-Jul-30 08:28N 44°18' E 008°29'0 0.0
2015-Jul-30 07:28N 44°18' E 008°29'0 0.0
2015-Jul-30 06:16N 44°18' E 008°29'0 0.0
2015-Jul-30 04:28N 44°18' E 008°29'0 0.0
2015-Jul-30 03:31N 44°18' E 008°29'0 0.0
2015-Jul-30 02:31N 44°18' E 008°29'0 0.0
2015-Jul-30 01:28N 44°18' E 008°29'0 0.0
2015-Jul-30 00:28N 44°18' E 008°29'0 0.0
2015-Jul-29 23:28N 44°18' E 008°29'0 0.0
2015-Jul-29 22:25N 44°18' E 008°29'0 0.0
2015-Jul-29 21:28N 44°18' E 008°29'0 0.0
2015-Jul-29 20:22N 44°18' E 008°29'0 0.0
2015-Jul-29 19:28N 44°18' E 008°29'0 0.0
2015-Jul-29 18:16N 44°18' E 008°29'0 0.0
2015-Jul-29 17:28N 44°18' E 008°29'0 0.0
2015-Jul-29 16:28N 44°18' E 008°29'0 0.0
2015-Jul-29 15:31N 44°18' E 008°29'0 0.0
2015-Jul-29 14:19N 44°18' E 008°29'0 0.0
2015-Jul-29 13:10N 44°18' E 008°29'0 0.0
2015-Jul-29 11:10N 44°18' E 008°29'0 0.0
2015-Jul-29 10:22N 44°18' E 008°29'0 0.0
2015-Jul-29 09:25N 44°18' E 008°29'0 0.0
2015-Jul-29 08:25N 44°18' E 008°29'0 0.0
2015-Jul-29 07:28N 44°18' E 008°29'0 0.0
2015-Jul-29 06:28N 44°18' E 008°29'0 0.0
2015-Jul-29 05:28N 44°18' E 008°29'0 0.0
2015-Jul-29 04:28N 44°18' E 008°29'0 0.0
2015-Jul-29 03:31N 44°18' E 008°29'0 0.0
2015-Jul-29 02:28N 44°18' E 008°29'0 0.0
2015-Jul-29 01:31N 44°18' E 008°29'0 0.0
2015-Jul-29 00:31N 44°18' E 008°29'0 0.0
2015-Jul-28 23:31N 44°18' E 008°29'0 0.0
2015-Jul-28 22:28N 44°18' E 008°29'0 0.0
2015-Jul-28 21:04N 44°18' E 008°29'0 0.0
2015-Jul-28 20:16N 44°18' E 008°29'0 0.0
2015-Jul-28 19:28N 44°18' E 008°29'0 0.0
2015-Jul-28 18:28N 44°18' E 008°29'0 0.0
2015-Jul-28 17:28N 44°18' E 008°29'0 0.0
2015-Jul-28 16:28N 44°18' E 008°29'0 0.0
2015-Jul-28 15:22N 44°18' E 008°29'0 0.0
2015-Jul-28 14:28N 44°18' E 008°29'0 0.0
2015-Jul-28 13:31N 44°18' E 008°29'0 0.0
2015-Jul-28 12:28N 44°18' E 008°29'0 0.0
2015-Jul-28 11:28N 44°18' E 008°29'0 0.0
2015-Jul-28 10:28N 44°18' E 008°29'0 0.0
2015-Jul-28 09:28N 44°18' E 008°29'0 0.0
2015-Jul-28 08:28N 44°18' E 008°29'0 0.0
2015-Jul-28 07:22N 44°18' E 008°29'1 0.9
2015-Jul-28 06:33N 44°19' E 008°30'0 0.0
2015-Jul-28 05:33N 44°19' E 008°30'1 0.6
2015-Jul-28 04:28N 44°18' E 008°29'0 0.0
2015-Jul-28 03:28N 44°18' E 008°29'0 0.0
2015-Jul-28 02:32N 44°18' E 008°29'0 0.0
2015-Jul-28 01:32N 44°18' E 008°29'0 0.0
2015-Jul-28 00:32N 44°18' E 008°29'0 0.0
2015-Jul-27 23:32N 44°18' E 008°29'0 0.0
2015-Jul-27 22:30N 44°18' E 008°29'0 0.0
2015-Jul-27 21:24N 44°18' E 008°29'0 0.0
2015-Jul-27 20:25N 44°18' E 008°29'0 0.0
2015-Jul-27 19:31N 44°18' E 008°29'0 0.0
2015-Jul-27 18:31N 44°18' E 008°29'0 0.0
2015-Jul-27 17:31N 44°18' E 008°29'0 0.0
2015-Jul-27 16:31N 44°18' E 008°29'0 0.0
2015-Jul-27 15:31N 44°18' E 008°29'0 0.0
2015-Jul-27 14:31N 44°18' E 008°29'0 0.0
2015-Jul-27 13:25N 44°18' E 008°29'1 0.6
2015-Jul-27 12:31N 44°19' E 008°30'0 0.0
2015-Jul-27 11:29N 44°19' E 008°30'0 0.1
2015-Jul-27 10:33N 44°19' E 008°30'1 0.6
2015-Jul-27 09:30N 44°18' E 008°29'0 0.0
2015-Jul-27 08:30N 44°18' E 008°29'0 0.0
2015-Jul-27 02:24N 44°18' E 008°29'0 0.0
2015-Jul-27 01:30N 44°18' E 008°29'0 0.0
2015-Jul-26 21:18N 44°18' E 008°29'0 0.0
2015-Jul-26 19:30N 44°18' E 008°29'1 0.1
2015-Jul-26 14:33N 44°18' E 008°30'2 1.9
2015-Jul-26 13:30N 44°17' E 008°28'1 1.4
2015-Jul-26 12:31N 44°17' E 008°29'1 1.1
2015-Jul-26 11:32N 44°18' E 008°29'0 0.0
2015-Jul-26 10:08N 44°18' E 008°29'0 0.0
2015-Jul-26 09:32N 44°18' E 008°29'0 0.0
2015-Jul-26 08:08N 44°18' E 008°29'0 0.0
2015-Jul-26 07:26N 44°18' E 008°29'0 0.0
2015-Jul-26 06:26N 44°18' E 008°29'0 0.0
2015-Jul-26 05:26N 44°18' E 008°29'0 0.0
2015-Jul-26 04:26N 44°18' E 008°29'0 0.0
2015-Jul-26 03:26N 44°18' E 008°29'0 0.0
2015-Jul-26 02:26N 44°18' E 008°29'0 0.0
2015-Jul-26 01:32N 44°18' E 008°29'0 0.0
2015-Jul-26 00:32N 44°18' E 008°29'0 0.0
2015-Jul-25 23:32N 44°18' E 008°29'0 0.0
2015-Jul-25 22:20N 44°18' E 008°29'0 0.0
2015-Jul-25 21:32N 44°18' E 008°29'0 0.0
2015-Jul-25 20:30N 44°18' E 008°29'0 0.0
2015-Jul-25 19:27N 44°18' E 008°29'0 0.0
2015-Jul-25 18:30N 44°18' E 008°29'0 0.0
2015-Jul-25 17:25N 44°18' E 008°29'0 0.0
2015-Jul-25 14:21N 44°18' E 008°29'0 0.0
2015-Jul-25 12:31N 44°18' E 008°29'0 0.0
2015-Jul-25 10:31N 44°18' E 008°29'0 0.0
2015-Jul-25 09:19N 44°18' E 008°29'0 0.0
2015-Jul-25 06:25N 44°18' E 008°29'0 0.0
2015-Jul-25 05:25N 44°18' E 008°29'0 0.0
2015-Jul-24 20:19N 44°18' E 008°29'0 0.0
2015-Jul-24 19:31N 44°18' E 008°29'0 0.0
2015-Jul-24 17:07N 44°18' E 008°29'0 0.0
2015-Jul-24 16:25N 44°18' E 008°29'0 0.0
2015-Jul-24 15:25N 44°18' E 008°29'0 0.0
2015-Jul-24 14:07N 44°18' E 008°29'0 0.0
2015-Jul-24 12:31N 44°18' E 008°29'0 0.0
2015-Jul-24 11:31N 44°18' E 008°29'  

Dump ship's entire track history